createdAt,value
2019-02-04T00:06:54.956Z,11.5
2019-02-04T00:16:54.165Z,11.5
2019-02-04T00:26:53.376Z,11.5
2019-02-04T00:36:52.588Z,11.5
2019-02-04T00:46:52.606Z,11.5
2019-02-04T00:56:51.008Z,11.5
2019-02-04T01:06:50.215Z,11.6
2019-02-04T01:16:49.425Z,11.6
2019-02-04T01:26:48.633Z,11.5
2019-02-04T01:36:47.846Z,11.6
2019-02-04T01:46:47.051Z,11.6
2019-02-04T01:56:46.260Z,11.6
2019-02-04T02:06:45.470Z,11.6
2019-02-04T02:16:44.679Z,11.6
2019-02-04T02:26:43.887Z,11.6
2019-02-04T02:36:43.101Z,11.5
2019-02-04T02:46:42.307Z,11.6
2019-02-04T02:56:41.523Z,11.6
2019-02-04T03:06:40.723Z,11.6
2019-02-04T03:16:39.934Z,11.5
2019-02-04T03:26:39.141Z,11.5
2019-02-04T03:36:38.350Z,11.5
2019-02-04T03:46:37.557Z,11.5
2019-02-04T03:56:36.765Z,11.5
2019-02-04T04:06:35.976Z,11.5
2019-02-04T04:16:35.182Z,11.5
2019-02-04T04:26:34.391Z,11.5
2019-02-04T04:36:33.598Z,11.5
2019-02-04T04:46:32.819Z,11.4
2019-02-04T04:56:32.012Z,10.9
2019-02-04T05:06:31.222Z,10.9
2019-02-04T05:16:30.434Z,10.9
2019-02-04T05:26:29.641Z,11
2019-02-04T05:36:28.852Z,11.1
2019-02-04T05:46:28.066Z,11
2019-02-04T05:56:27.279Z,11.1
2019-02-04T06:06:26.489Z,11.1
2019-02-04T06:16:25.709Z,11.1
2019-02-04T06:26:24.924Z,11
2019-02-04T06:36:24.131Z,11
2019-02-04T06:46:23.343Z,10.9
2019-02-04T06:56:22.552Z,11
2019-02-04T07:06:21.765Z,11
2019-02-04T07:16:20.973Z,10.9
2019-02-04T07:26:20.183Z,11
2019-02-04T07:36:19.392Z,11
2019-02-04T07:46:18.606Z,11.1
2019-02-04T07:56:17.811Z,11.2
2019-02-04T08:06:17.023Z,10.9
2019-02-04T08:16:16.230Z,11.2
2019-02-04T08:26:15.445Z,11.3
2019-02-04T08:36:14.649Z,11.4
2019-02-04T08:46:13.858Z,11.6
2019-02-04T08:56:13.068Z,11.7
2019-02-04T09:06:12.277Z,11.9
2019-02-04T09:16:11.489Z,12
2019-02-04T09:26:10.692Z,12.3
2019-02-04T09:36:09.901Z,12.5
2019-02-04T09:46:09.110Z,12.8
2019-02-04T09:56:08.323Z,13.1
2019-02-04T10:06:07.533Z,13.3
2019-02-04T10:16:06.782Z,13.5
2019-02-04T10:26:05.955Z,13.7
2019-02-04T10:36:05.202Z,13.9
2019-02-04T10:46:04.918Z,14.1
2019-02-04T10:56:03.620Z,14.2
2019-02-04T11:06:02.837Z,14.4
